createdAt,value
2018-01-15T00:02:00.662Z,21.93
2018-01-15T00:04:30.524Z,20.03
2018-01-15T00:07:00.440Z,22.40
2018-01-15T00:09:34.163Z,21.33
2018-01-15T00:12:04.884Z,21.20
2018-01-15T00:14:34.866Z,21.20
2018-01-15T00:17:04.830Z,22.60
2018-01-15T00:19:34.987Z,22.90
2018-01-15T00:22:05.045Z,22.63
2018-01-15T00:24:34.930Z,22.20
2018-01-15T00:27:04.885Z,22.80
2018-01-15T00:29:34.770Z,23.07
2018-01-15T00:32:04.640Z,21.73
2018-01-15T00:34:36.638Z,22.40
2018-01-15T00:37:06.516Z,22.30
2018-01-15T00:39:36.375Z,21.27
2018-01-15T00:42:06.260Z,23.23
2018-01-15T00:44:36.165Z,22.77
2018-01-15T00:47:06.048Z,21.10
2018-01-15T00:49:36.168Z,22.80
2018-01-15T00:52:06.120Z,23.00
2018-01-15T00:54:35.992Z,21.57
2018-01-15T00:57:05.931Z,21.90
2018-01-15T00:59:35.835Z,22.77
2018-01-15T01:02:05.712Z,22.33
2018-01-15T01:04:35.651Z,23.60
2018-01-15T01:07:06.570Z,21.87
2018-01-15T01:09:38.249Z,21.13
2018-01-15T01:12:11.725Z,23.67
2018-01-15T01:14:41.885Z,22.60
2018-01-15T01:17:11.785Z,22.83
2018-01-15T01:19:41.666Z,23.23
2018-01-15T01:22:11.516Z,23.03
2018-01-15T01:24:41.400Z,21.90
2018-01-15T01:27:11.292Z,20.47
2018-01-15T01:29:41.190Z,25.10
2018-01-15T01:32:11.112Z,22.37
2018-01-15T01:34:41.037Z,22.53
2018-01-15T01:37:10.901Z,23.10
2018-01-15T01:39:40.801Z,21.57
2018-01-15T01:42:12.438Z,22.03
2018-01-15T01:44:42.324Z,24.00
2018-01-15T01:47:15.137Z,23.73
2018-01-15T01:49:45.010Z,23.10
2018-01-15T01:52:14.907Z,23.03
2018-01-15T01:54:44.840Z,23.03
2018-01-15T01:57:14.733Z,22.47
2018-01-15T01:59:45.321Z,19.37
2018-01-15T02:02:15.210Z,23.73
2018-01-15T02:04:45.117Z,23.67
2018-01-15T02:07:15.016Z,22.00
2018-01-15T02:09:44.920Z,22.20
2018-01-15T02:12:15.045Z,22.50
2018-01-15T02:14:44.943Z,22.90
2018-01-15T02:17:14.893Z,23.70
2018-01-15T02:19:44.782Z,22.30
2018-01-15T02:22:15.212Z,23.00
2018-01-15T02:24:45.100Z,22.97
2018-01-15T02:27:15.812Z,22.87
2018-01-15T02:29:45.687Z,23.27
2018-01-15T02:32:15.600Z,21.47
2018-01-15T02:34:45.506Z,25.20
2018-01-15T02:37:15.403Z,22.37
2018-01-15T02:39:45.278Z,21.43
2018-01-15T02:42:15.173Z,24.30
2018-01-15T02:44:45.035Z,22.53
2018-01-15T02:47:14.942Z,21.90
2018-01-15T02:49:44.866Z,23.57
2018-01-15T02:52:14.821Z,22.67
2018-01-15T02:54:44.905Z,23.43
2018-01-15T02:57:14.882Z,25.13
2018-01-15T02:59:44.882Z,23.80
2018-01-15T03:02:14.862Z,21.67
2018-01-15T03:04:44.870Z,23.73
2018-01-15T03:07:14.777Z,23.57
2018-01-15T03:09:44.678Z,22.93
2018-01-15T03:12:18.690Z,23.27
2018-01-15T03:14:48.643Z,24.03
2018-01-15T03:17:18.618Z,22.73
2018-01-15T03:19:48.690Z,24.60
2018-01-15T03:22:18.615Z,25.17
2018-01-15T03:24:48.513Z,22.90
2018-01-15T03:27:18.373Z,24.50
2018-01-15T03:29:48.291Z,23.83
2018-01-15T03:32:18.458Z,22.33
2018-01-15T03:34:48.490Z,23.63
2018-01-15T03:37:18.336Z,22.00
2018-01-15T03:39:48.357Z,26.83
2018-01-15T03:42:18.216Z,25.10
2018-01-15T03:44:48.122Z,25.03
2018-01-15T03:47:17.997Z,22.77
2018-01-15T03:49:47.872Z,23.27
2018-01-15T03:52:17.749Z,24.13
2018-01-15T03:54:47.604Z,23.97
2018-01-15T03:57:17.504Z,25.13
2018-01-15T03:59:48.200Z,24.03
2018-01-15T04:02:18.115Z,23.17
2018-01-15T04:04:48.024Z,25.13
2018-01-15T04:07:17.976Z,23.47
2018-01-15T04:09:47.850Z,24.70
2018-01-15T04:12:17.780Z,24.00
2018-01-15T04:14:48.568Z,23.20
2018-01-15T04:17:18.420Z,23.73
2018-01-15T04:19:48.382Z,23.17
2018-01-15T04:22:18.233Z,24.30
2018-01-15T04:24:48.167Z,21.77
2018-01-15T04:27:18.045Z,23.07
2018-01-15T04:29:47.929Z,23.67
2018-01-15T04:32:17.908Z,22.83
2018-01-15T04:34:47.775Z,22.77
2018-01-15T04:37:17.802Z,22.50
2018-01-15T04:39:47.682Z,26.90
2018-01-15T04:42:17.583Z,24.63
2018-01-15T04:44:47.447Z,25.00
2018-01-15T04:47:17.348Z,24.50
2018-01-15T04:49:47.236Z,24.90
2018-01-15T04:52:17.228Z,23.90
2018-01-15T04:54:47.098Z,28.30
2018-01-15T04:57:17.010Z,26.20
2018-01-15T04:59:46.917Z,23.97
2018-01-15T05:02:16.936Z,25.00
2018-01-15T05:04:46.799Z,24.87
2018-01-15T05:07:16.644Z,24.37
2018-01-15T05:09:46.616Z,22.77
2018-01-15T05:12:16.546Z,24.90
2018-01-15T05:14:46.436Z,23.67
2018-01-15T05:17:16.452Z,24.47
2018-01-15T05:19:46.364Z,22.73
2018-01-15T05:22:16.285Z,25.97
2018-01-15T05:24:46.206Z,24.10
2018-01-15T05:27:16.120Z,22.43
2018-01-15T05:29:46.029Z,23.83
2018-01-15T05:32:15.883Z,25.80
2018-01-15T05:34:45.769Z,24.20
2018-01-15T05:37:15.711Z,23.63
2018-01-15T05:39:45.585Z,23.40
2018-01-15T05:42:15.495Z,24.50
2018-01-15T05:44:45.415Z,23.23
2018-01-15T05:47:15.315Z,22.43
2018-01-15T05:49:45.198Z,22.93
2018-01-15T05:52:15.163Z,22.57
2018-01-15T05:54:45.189Z,23.30
2018-01-15T05:57:15.157Z,23.97
2018-01-15T05:59:45.044Z,26.10
2018-01-15T06:02:14.978Z,23.87
2018-01-15T06:04:44.988Z,24.50
2018-01-15T06:07:14.837Z,26.03
2018-01-15T06:09:44.751Z,24.27
2018-01-15T06:12:14.656Z,23.57
2018-01-15T06:14:44.571Z,24.60
2018-01-15T06:17:14.445Z,23.80
2018-01-15T06:19:44.413Z,24.50
2018-01-15T06:22:14.332Z,26.33
2018-01-15T06:24:44.252Z,24.47
2018-01-15T06:27:14.146Z,24.40
2018-01-15T06:29:44.072Z,23.40
2018-01-15T06:32:14.019Z,24.33
2018-01-15T06:34:43.979Z,22.87
2018-01-15T06:37:13.813Z,23.53
2018-01-15T06:39:43.750Z,23.70
2018-01-15T06:42:13.682Z,22.70
2018-01-15T06:44:43.586Z,22.30
2018-01-15T06:47:13.514Z,25.33
2018-01-15T06:49:43.475Z,23.10
2018-01-15T06:52:13.401Z,22.40
2018-01-15T06:54:43.294Z,22.27
2018-01-15T06:57:13.280Z,23.40
2018-01-15T06:59:43.277Z,21.67
2018-01-15T07:02:13.306Z,22.17
2018-01-15T07:04:43.209Z,20.27
2018-01-15T07:07:13.123Z,22.87
2018-01-15T07:09:43.061Z,21.17
2018-01-15T07:12:13.279Z,22.23
2018-01-15T07:14:43.194Z,22.63
2018-01-15T07:17:13.329Z,22.27
2018-01-15T07:19:43.522Z,18.90
2018-01-15T07:22:13.533Z,23.77
2018-01-15T07:24:43.472Z,22.17
2018-01-15T07:27:13.482Z,22.70
2018-01-15T07:29:43.372Z,22.20
2018-01-15T07:32:13.365Z,20.97
2018-01-15T07:34:43.267Z,21.07
2018-01-15T07:37:13.184Z,20.87
2018-01-15T07:39:43.111Z,22.70
2018-01-15T07:42:13.170Z,22.50
2018-01-15T07:44:43.048Z,22.67
2018-01-15T07:47:12.949Z,23.10
2018-01-15T07:49:42.931Z,21.63
2018-01-15T07:52:13.043Z,22.57
2018-01-15T07:54:42.917Z,20.30
2018-01-15T07:57:12.843Z,20.87
2018-01-15T07:59:42.713Z,20.37
2018-01-15T08:02:12.741Z,20.57
2018-01-15T08:04:42.637Z,21.67
2018-01-15T08:07:12.548Z,20.07
2018-01-15T08:09:42.429Z,21.57
2018-01-15T08:12:12.454Z,21.97
2018-01-15T08:14:42.398Z,20.40
2018-01-15T08:17:12.276Z,22.17
2018-01-15T08:19:42.139Z,21.10
2018-01-15T08:22:12.222Z,20.27
2018-01-15T08:24:42.073Z,19.43
2018-01-15T08:27:11.946Z,22.70
2018-01-15T08:29:41.816Z,21.60
2018-01-15T08:32:11.838Z,20.90
2018-01-15T08:34:41.734Z,21.23
2018-01-15T08:37:11.588Z,20.00
2018-01-15T08:39:42.351Z,20.73
2018-01-15T08:42:12.274Z,19.87
2018-01-15T08:44:42.339Z,19.50
2018-01-15T08:47:12.205Z,19.93
2018-01-15T08:49:42.115Z,18.63
2018-01-15T08:52:12.005Z,18.93
2018-01-15T08:54:41.924Z,18.37
2018-01-15T08:57:11.811Z,20.17
2018-01-15T08:59:41.671Z,18.33
2018-01-15T09:02:11.577Z,18.37
2018-01-15T09:04:42.434Z,18.73
2018-01-15T09:07:12.383Z,19.90
2018-01-15T09:09:42.281Z,19.50
2018-01-15T09:12:12.189Z,18.47
2018-01-15T09:14:42.064Z,17.40
2018-01-15T09:17:11.957Z,18.00
2018-01-15T09:19:41.835Z,19.17
2018-01-15T09:22:31.550Z,17.67
2018-01-15T09:25:01.603Z,16.10
2018-01-15T09:27:31.494Z,19.17
2018-01-15T09:30:01.433Z,16.90
2018-01-15T09:32:31.306Z,17.23
2018-01-15T09:35:01.325Z,16.00
2018-01-15T09:37:31.208Z,16.37
2018-01-15T09:40:01.137Z,16.63
2018-01-15T09:42:31.014Z,16.20
2018-01-15T09:45:00.892Z,16.90
2018-01-15T09:47:30.760Z,17.90
2018-01-15T09:50:09.945Z,18.70
2018-01-15T10:02:19.932Z,15.47
2018-01-15T10:04:50.149Z,16.60
2018-01-15T10:07:20.321Z,16.83
2018-01-15T10:09:50.333Z,16.07
2018-01-15T10:12:21.722Z,17.10
2018-01-15T10:14:51.995Z,16.77
2018-01-15T10:17:22.036Z,16.50
2018-01-15T10:19:52.743Z,17.20
2018-01-15T10:22:22.616Z,15.87
2018-01-15T10:24:52.642Z,15.87
2018-01-15T10:27:22.590Z,17.77
2018-01-15T10:29:52.564Z,18.33
2018-01-15T10:32:22.442Z,16.37
2018-01-15T10:34:52.493Z,16.03
2018-01-15T10:37:23.289Z,15.83
2018-01-15T10:39:53.506Z,17.70
2018-01-15T10:42:24.374Z,15.57
2018-01-15T10:44:55.334Z,17.57
2018-01-15T10:47:25.504Z,16.30
2018-01-15T10:49:56.760Z,14.53
2018-01-15T10:52:26.779Z,15.33
2018-01-15T10:54:56.741Z,15.20
2018-01-15T10:57:26.744Z,17.30
2018-01-15T10:59:58.866Z,17.20
2018-01-15T11:02:37.230Z,15.80
2018-01-15T11:05:07.329Z,16.00
2018-01-15T11:07:37.203Z,15.20
2018-01-15T11:10:07.125Z,16.53
2018-01-15T11:12:37.072Z,15.87
2018-01-15T11:15:06.969Z,16.33
2018-01-15T11:17:37.188Z,15.07
2018-01-15T11:20:07.108Z,12.77
2018-01-15T11:22:36.987Z,14.67
2018-01-15T11:25:06.951Z,14.43
2018-01-15T11:27:36.824Z,13.73
2018-01-15T11:30:06.699Z,16.10
2018-01-15T11:32:36.608Z,15.63
2018-01-15T11:35:06.456Z,15.17
2018-01-15T11:37:36.337Z,15.87
2018-01-15T11:40:06.221Z,15.50
2018-01-15T11:42:36.902Z,16.60
2018-01-15T11:45:06.839Z,14.77
2018-01-15T11:47:36.876Z,14.47
2018-01-15T11:50:06.889Z,15.70
2018-01-15T11:52:36.769Z,16.80
2018-01-15T11:55:06.627Z,14.43
2018-01-15T11:57:36.684Z,15.40
2018-01-15T12:00:06.585Z,15.00
2018-01-15T12:02:36.465Z,16.30
2018-01-15T12:05:06.407Z,15.00
2018-01-15T12:07:36.576Z,15.90
2018-01-15T12:10:06.490Z,13.73
2018-01-15T12:12:36.432Z,15.87
2018-01-15T12:15:06.515Z,15.33
2018-01-15T12:17:36.399Z,14.57
2018-01-15T12:20:06.291Z,14.27
2018-01-15T12:22:36.271Z,16.13
2018-01-15T12:37:56.286Z,16.27
2018-01-15T12:40:26.138Z,15.90
2018-01-15T12:42:56.830Z,16.33
2018-01-15T12:45:26.910Z,15.23
2018-01-15T12:47:56.823Z,16.30
2018-01-15T12:53:32.491Z,16.17
2018-01-15T12:56:02.458Z,14.83
2018-01-15T12:58:32.403Z,15.10
2018-01-15T13:07:03.778Z,15.73
2018-01-15T13:09:33.777Z,15.50
2018-01-15T13:28:46.461Z,15.43
2018-01-15T13:31:32.598Z,15.20
2018-01-15T13:34:02.613Z,14.97
2018-01-15T13:36:32.584Z,15.07
2018-01-15T13:45:13.414Z,13.63
2018-01-15T13:47:44.000Z,14.80
2018-01-15T13:53:20.366Z,16.53
2018-01-15T13:55:50.525Z,14.20
2018-01-15T13:58:20.774Z,15.17
2018-01-15T14:00:50.823Z,15.83
2018-01-15T14:03:20.802Z,15.17
2018-01-15T14:05:50.764Z,16.90
2018-01-15T14:30:02.819Z,14.90
2018-01-15T14:32:32.793Z,14.23
2018-01-15T14:38:30.741Z,14.60
2018-01-15T14:47:53.533Z,15.50
2018-01-15T14:50:23.622Z,14.70
2018-01-15T14:52:55.123Z,16.30
2018-01-15T14:55:25.357Z,15.83
2018-01-15T14:57:55.649Z,14.70
2018-01-15T15:00:25.648Z,15.60
2018-01-15T15:02:56.403Z,14.17
2018-01-15T15:05:27.133Z,15.53
2018-01-15T15:07:58.980Z,16.13
2018-01-15T15:10:29.266Z,14.67
2018-01-15T15:12:59.241Z,14.97
2018-01-15T15:15:29.375Z,14.90
2018-01-15T15:17:59.372Z,15.90
2018-01-15T15:20:30.114Z,15.73
2018-01-15T15:23:00.143Z,15.70
2018-01-15T15:25:30.209Z,15.80
2018-01-15T15:28:02.816Z,16.27
2018-01-15T15:30:32.694Z,15.67
2018-01-15T15:33:02.784Z,15.13
2018-01-15T15:35:32.867Z,17.27
2018-01-15T15:38:02.907Z,15.13
2018-01-15T15:43:39.409Z,14.83
2018-01-15T15:46:09.565Z,15.23
2018-01-15T15:48:39.695Z,15.53
2018-01-15T15:51:17.295Z,14.77
2018-01-15T15:53:47.888Z,15.43
2018-01-15T15:56:17.939Z,15.33
2018-01-15T15:58:47.992Z,15.07
2018-01-15T16:01:18.101Z,14.87
2018-01-15T16:03:48.041Z,16.03
2018-01-15T16:06:18.120Z,14.70
2018-01-15T16:08:48.173Z,14.40
2018-01-15T16:11:18.232Z,15.20
2018-01-15T16:13:48.257Z,14.80
2018-01-15T16:16:18.241Z,14.63
2018-01-15T16:18:48.953Z,14.83
2018-01-15T16:21:31.758Z,14.30
2018-01-15T16:24:01.767Z,14.00
2018-01-15T16:26:31.866Z,15.03
2018-01-15T16:29:02.589Z,13.13
2018-01-15T16:31:33.908Z,14.70
2018-01-15T16:34:04.117Z,13.97
2018-01-15T16:36:34.164Z,13.90
2018-01-15T16:39:04.261Z,14.10
2018-01-15T16:41:34.275Z,14.47
2018-01-15T16:44:04.293Z,14.23
2018-01-15T16:46:34.210Z,16.50
2018-01-15T16:49:04.177Z,15.10
2018-01-15T16:51:34.015Z,15.17
2018-01-15T16:54:03.985Z,15.73
2018-01-15T16:56:33.942Z,15.87
2018-01-15T16:59:03.813Z,14.53
2018-01-15T17:01:33.679Z,15.97
2018-01-15T17:04:03.759Z,15.17
2018-01-15T17:06:33.637Z,16.17
2018-01-15T17:09:03.646Z,17.03
2018-01-15T17:11:33.586Z,16.00
2018-01-15T17:14:03.581Z,16.77
2018-01-15T17:16:33.473Z,16.60
2018-01-15T17:19:03.441Z,15.63
2018-01-15T17:21:33.345Z,16.70
2018-01-15T17:24:04.136Z,16.77
2018-01-15T17:26:34.137Z,16.83
2018-01-15T17:29:04.011Z,17.27
2018-01-15T17:31:33.963Z,16.17
2018-01-15T17:34:03.898Z,14.70
2018-01-15T17:36:33.941Z,16.33
2018-01-15T17:39:03.963Z,16.53
2018-01-15T17:41:33.869Z,17.67
2018-01-15T17:44:03.894Z,15.33
2018-01-15T17:46:33.764Z,16.20
2018-01-15T17:49:03.652Z,17.37
2018-01-15T17:51:33.559Z,14.53
2018-01-15T17:54:03.501Z,15.50
2018-01-15T17:56:33.381Z,17.73
2018-01-15T17:59:03.276Z,16.37
2018-01-15T18:01:33.124Z,16.43
2018-01-15T18:04:03.295Z,15.40
2018-01-15T18:06:33.239Z,16.47
2018-01-15T18:09:03.154Z,15.20
2018-01-15T18:11:34.136Z,15.83
2018-01-15T18:14:04.048Z,15.47
2018-01-15T18:16:33.917Z,15.40
2018-01-15T18:19:03.887Z,15.43
2018-01-15T18:21:33.967Z,15.60
2018-01-15T18:24:03.848Z,15.27
2018-01-15T18:26:34.407Z,15.73
2018-01-15T18:29:04.725Z,15.37
2018-01-15T18:31:34.721Z,17.97
2018-01-15T18:34:07.888Z,14.80
2018-01-15T18:36:39.696Z,16.13
2018-01-15T18:39:09.640Z,16.60
2018-01-15T18:41:39.669Z,15.90
2018-01-15T18:44:09.728Z,17.80
2018-01-15T18:46:39.642Z,15.40
2018-01-15T18:49:09.679Z,14.90
2018-01-15T18:51:39.584Z,17.20
2018-01-15T18:54:09.497Z,15.97
2018-01-15T18:56:39.417Z,16.13
2018-01-15T18:59:09.268Z,16.27
2018-01-15T19:01:39.201Z,16.67
2018-01-15T19:04:09.129Z,15.10
2018-01-15T19:06:38.999Z,16.77
2018-01-15T19:09:08.932Z,18.07
2018-01-15T19:11:38.810Z,17.33
2018-01-15T19:14:08.695Z,17.47
2018-01-15T19:16:38.634Z,16.83
2018-01-15T19:19:08.558Z,16.60
2018-01-15T19:21:38.526Z,16.90
2018-01-15T19:24:08.422Z,14.90
2018-01-15T19:26:38.290Z,17.13
2018-01-15T19:29:08.273Z,16.70
2018-01-15T19:31:38.193Z,16.90
2018-01-15T19:34:08.148Z,17.27
2018-01-15T19:36:59.818Z,17.80
2018-01-15T19:39:29.726Z,14.50
2018-01-15T19:42:00.583Z,17.17
2018-01-15T19:44:36.377Z,17.30
2018-01-15T19:47:11.920Z,16.80
2018-01-15T19:49:47.357Z,15.60
2018-01-15T19:52:22.900Z,15.90
2018-01-15T19:54:58.452Z,16.60
2018-01-15T19:57:34.055Z,15.27
2018-01-15T20:00:09.686Z,14.97
2018-01-15T20:02:45.180Z,16.07
2018-01-15T20:05:20.759Z,15.83
2018-01-15T20:07:56.201Z,15.20
2018-01-15T20:10:31.777Z,15.27
2018-01-15T20:13:02.440Z,17.90
2018-01-15T20:15:32.409Z,15.33
2018-01-15T20:18:02.290Z,16.43
2018-01-15T20:20:32.206Z,15.37
2018-01-15T20:23:02.127Z,16.13
2018-01-15T20:25:32.102Z,16.20
2018-01-15T20:28:02.142Z,15.00
2018-01-15T20:30:32.080Z,15.47
2018-01-15T20:33:02.022Z,15.40
2018-01-15T20:35:31.913Z,15.03
2018-01-15T20:38:01.886Z,17.80
2018-01-15T20:40:31.832Z,15.20
2018-01-15T20:43:01.830Z,15.90
2018-01-15T20:45:31.914Z,16.20
2018-01-15T20:48:01.898Z,15.10
2018-01-15T20:50:31.799Z,17.10
2018-01-15T20:53:01.740Z,15.37
2018-01-15T20:55:31.661Z,14.87
2018-01-15T20:58:01.570Z,15.87
2018-01-15T21:00:31.659Z,16.40
2018-01-15T21:03:01.600Z,16.40
2018-01-15T21:05:31.582Z,15.23
2018-01-15T21:08:01.532Z,15.10
2018-01-15T21:10:31.447Z,20.20
2018-01-15T21:13:01.405Z,16.47
2018-01-15T21:15:31.325Z,17.10
2018-01-15T21:18:01.290Z,16.30
2018-01-15T21:20:31.191Z,16.73
2018-01-15T21:23:01.124Z,16.90
2018-01-15T21:25:31.043Z,19.90
2018-01-15T21:28:00.933Z,17.03
2018-01-15T21:30:30.858Z,18.00
2018-01-15T21:33:00.803Z,17.67
2018-01-15T21:35:30.794Z,22.10
2018-01-15T21:38:00.661Z,19.87
2018-01-15T21:40:30.537Z,16.27
2018-01-15T21:43:00.404Z,19.00
2018-01-15T21:45:30.310Z,16.73
2018-01-15T21:48:00.246Z,17.93
2018-01-15T21:50:30.290Z,17.70
2018-01-15T21:53:00.193Z,17.73
2018-01-15T21:55:30.242Z,18.97
2018-01-15T21:58:00.171Z,17.83
2018-01-15T22:00:30.156Z,18.53
2018-01-15T22:03:00.139Z,19.97
2018-01-15T22:05:30.106Z,18.70
2018-01-15T22:07:59.991Z,17.97
2018-01-15T22:10:29.905Z,17.20
2018-01-15T22:12:59.871Z,19.03
2018-01-15T22:15:29.874Z,19.60
2018-01-15T22:17:59.844Z,19.10
2018-01-15T22:20:29.847Z,19.10
2018-01-15T22:22:59.850Z,19.13
2018-01-15T22:25:29.754Z,18.70
2018-01-15T22:27:59.681Z,19.17
2018-01-15T22:30:29.870Z,18.70
2018-01-15T22:32:59.793Z,19.43
2018-01-15T22:35:29.694Z,14.93
2018-01-15T22:37:59.612Z,14.80
2018-01-15T22:40:29.488Z,18.20
2018-01-15T22:43:00.783Z,18.50
2018-01-15T22:45:30.676Z,19.60
2018-01-15T22:48:01.263Z,19.17
2018-01-15T22:50:31.180Z,18.40
2018-01-15T22:53:01.276Z,19.33
2018-01-15T22:55:31.132Z,18.20
2018-01-15T22:58:00.997Z,19.83
2018-01-15T23:00:30.907Z,18.30
2018-01-15T23:03:00.891Z,17.90
2018-01-15T23:05:30.983Z,18.40
2018-01-15T23:08:00.925Z,18.40
2018-01-15T23:10:30.843Z,16.70
2018-01-15T23:13:00.892Z,17.97
2018-01-15T23:15:30.798Z,17.30
2018-01-15T23:18:00.678Z,17.73
2018-01-15T23:20:30.773Z,17.10
2018-01-15T23:23:00.632Z,17.80
2018-01-15T23:25:30.564Z,14.90
2018-01-15T23:28:00.473Z,15.40
2018-01-15T23:30:30.423Z,15.20
2018-01-15T23:33:00.287Z,16.20
2018-01-15T23:35:30.170Z,13.40
2018-01-15T23:38:00.043Z,15.70
2018-01-15T23:40:30.219Z,15.97
2018-01-15T23:43:00.117Z,13.70
2018-01-15T23:45:30.038Z,12.93
2018-01-15T23:47:59.878Z,13.77
2018-01-15T23:50:29.890Z,13.23
2018-01-15T23:52:59.800Z,13.03
2018-01-15T23:55:29.662Z,13.30
2018-01-15T23:57:59.573Z,13.73
